createdAt,value
2019-01-26T00:00:43.542Z,0.00
2019-01-26T00:01:43.451Z,0.00
2019-01-26T00:02:43.363Z,0.00
2019-01-26T00:03:43.273Z,0.00
2019-01-26T00:04:43.183Z,0.00
2019-01-26T00:05:43.094Z,0.00
2019-01-26T00:06:43.001Z,0.00
2019-01-26T00:07:42.912Z,0.00
2019-01-26T00:08:42.821Z,0.00
2019-01-26T00:09:42.733Z,0.00
2019-01-26T00:10:42.644Z,0.00
2019-01-26T00:11:42.554Z,0.00
2019-01-26T00:12:42.464Z,0.00
2019-01-26T00:13:42.390Z,0.00
2019-01-26T00:14:42.284Z,0.00
2019-01-26T00:15:42.213Z,0.00
2019-01-26T00:16:42.105Z,0.00
2019-01-26T00:17:42.018Z,0.00
2019-01-26T00:18:41.926Z,0.00
2019-01-26T00:19:41.833Z,0.00
2019-01-26T00:20:41.743Z,0.00
2019-01-26T00:21:41.653Z,0.00
2019-01-26T00:22:41.563Z,0.00
2019-01-26T00:23:41.473Z,0.00
2019-01-26T00:24:41.386Z,0.00
2019-01-26T00:25:41.294Z,0.00
2019-01-26T00:26:41.203Z,0.00
2019-01-26T00:27:41.121Z,0.00
2019-01-26T00:28:41.024Z,0.00
2019-01-26T00:29:40.935Z,0.00
2019-01-26T00:30:40.845Z,0.00
2019-01-26T00:31:40.765Z,0.00
2019-01-26T00:32:40.666Z,0.00
2019-01-26T00:33:43.260Z,0.00
2019-01-26T00:34:40.485Z,0.00
2019-01-26T00:35:40.395Z,0.00
2019-01-26T00:36:40.304Z,0.00
2019-01-26T00:37:40.218Z,0.00
2019-01-26T00:38:40.123Z,0.00
2019-01-26T00:39:40.034Z,0.00
2019-01-26T00:40:39.943Z,0.00
2019-01-26T00:41:39.852Z,0.00
2019-01-26T00:42:39.762Z,0.00
2019-01-26T00:43:39.672Z,0.00
2019-01-26T00:44:39.584Z,0.00
2019-01-26T00:45:39.490Z,0.00
2019-01-26T00:46:39.401Z,0.00
2019-01-26T00:47:39.312Z,0.00
2019-01-26T00:48:39.219Z,0.00
2019-01-26T00:49:39.130Z,0.00
2019-01-26T00:50:39.077Z,0.00
2019-01-26T00:51:38.949Z,0.00
2019-01-26T00:52:38.857Z,0.00
2019-01-26T00:53:38.767Z,0.00
2019-01-26T00:54:38.679Z,0.00
2019-01-26T00:55:38.589Z,0.00
2019-01-26T00:56:38.498Z,0.00
2019-01-26T00:57:38.406Z,0.00
2019-01-26T00:58:38.319Z,0.00
2019-01-26T00:59:38.227Z,0.00
2019-01-26T01:00:38.135Z,0.00
2019-01-26T01:01:38.047Z,0.00
2019-01-26T01:02:37.957Z,0.00
2019-01-26T01:03:37.941Z,0.00
2019-01-26T01:04:37.774Z,0.00
2019-01-26T01:05:37.685Z,0.00
2019-01-26T01:06:37.593Z,0.00
2019-01-26T01:07:37.520Z,0.00
2019-01-26T01:08:37.436Z,0.00
2019-01-26T01:09:37.341Z,0.00
2019-01-26T01:10:37.231Z,0.00
2019-01-26T01:11:37.144Z,0.00
2019-01-26T01:12:37.050Z,0.00
2019-01-26T01:13:36.961Z,0.00
2019-01-26T01:14:36.875Z,0.00
2019-01-26T01:15:36.782Z,0.00
2019-01-26T01:16:36.693Z,0.00
2019-01-26T01:17:36.599Z,0.00
2019-01-26T01:18:36.516Z,0.00
2019-01-26T01:19:36.423Z,0.00
2019-01-26T01:20:36.329Z,0.00
2019-01-26T01:21:36.239Z,0.00
2019-01-26T01:22:36.147Z,0.00
2019-01-26T01:23:36.113Z,0.00
2019-01-26T01:24:35.976Z,0.00
2019-01-26T01:25:35.881Z,0.00
2019-01-26T01:26:35.786Z,0.00
2019-01-26T01:27:35.699Z,0.00
2019-01-26T01:28:35.606Z,0.00
2019-01-26T01:29:35.515Z,0.00
2019-01-26T01:30:35.429Z,0.00
2019-01-26T01:31:35.336Z,0.00
2019-01-26T01:32:35.244Z,0.00
2019-01-26T01:33:35.153Z,0.00
2019-01-26T01:34:35.064Z,0.00
2019-01-26T01:35:34.973Z,0.00
2019-01-26T01:36:34.883Z,0.00
2019-01-26T01:37:34.790Z,0.00
2019-01-26T01:38:34.703Z,0.00
2019-01-26T01:39:34.616Z,0.00
2019-01-26T01:40:34.522Z,0.00
2019-01-26T01:41:34.430Z,0.00
2019-01-26T01:42:34.340Z,0.00
2019-01-26T01:43:34.250Z,0.00
2019-01-26T01:44:34.159Z,0.00
2019-01-26T01:45:34.068Z,0.00
2019-01-26T01:46:33.978Z,0.00
2019-01-26T01:47:33.901Z,0.00
2019-01-26T01:48:33.797Z,0.00
2019-01-26T01:49:33.706Z,0.00
2019-01-26T01:50:33.616Z,0.00
2019-01-26T01:51:33.524Z,0.00
2019-01-26T01:52:33.489Z,0.00
2019-01-26T01:53:33.346Z,0.00
2019-01-26T01:54:33.253Z,0.00
2019-01-26T01:55:33.163Z,0.00
2019-01-26T01:56:33.076Z,0.00
2019-01-26T01:57:32.984Z,0.00
2019-01-26T01:58:32.891Z,0.00
2019-01-26T01:59:32.801Z,0.00
2019-01-26T02:00:32.712Z,0.00
2019-01-26T02:01:32.641Z,0.00
2019-01-26T02:02:32.532Z,0.00
2019-01-26T02:03:32.441Z,0.00
2019-01-26T02:04:32.350Z,0.00
2019-01-26T02:05:32.258Z,0.00
2019-01-26T02:06:32.165Z,0.00
2019-01-26T02:07:32.079Z,0.00
2019-01-26T02:08:31.985Z,0.00
2019-01-26T02:09:31.896Z,0.00
2019-01-26T02:10:31.805Z,0.00
2019-01-26T02:11:31.716Z,0.00
2019-01-26T02:12:31.625Z,0.00
2019-01-26T02:13:31.535Z,0.00
2019-01-26T02:14:31.442Z,0.00
2019-01-26T02:15:31.355Z,0.00
2019-01-26T02:16:31.263Z,0.00
2019-01-26T02:17:31.171Z,0.00
2019-01-26T02:18:31.081Z,0.00
2019-01-26T02:19:30.999Z,0.00
2019-01-26T02:20:30.900Z,0.00
2019-01-26T02:21:30.809Z,0.00
2019-01-26T02:22:30.724Z,0.00
2019-01-26T02:23:30.630Z,0.00
2019-01-26T02:24:30.538Z,0.00
2019-01-26T02:25:30.450Z,0.00
2019-01-26T02:26:30.357Z,0.00
2019-01-26T02:27:30.266Z,0.00
2019-01-26T02:28:30.203Z,0.00
2019-01-26T02:29:30.084Z,0.00
2019-01-26T02:30:30.008Z,0.00
2019-01-26T02:31:29.905Z,0.00
2019-01-26T02:32:29.819Z,0.00
2019-01-26T02:33:29.721Z,0.00
2019-01-26T02:34:29.630Z,0.00
2019-01-26T02:35:29.540Z,0.00
2019-01-26T02:36:29.450Z,0.00
2019-01-26T02:37:29.360Z,0.00
2019-01-26T02:38:29.267Z,0.00
2019-01-26T02:39:29.179Z,0.00
2019-01-26T02:40:29.093Z,0.00
2019-01-26T02:41:29.000Z,0.00
2019-01-26T02:42:28.904Z,0.00
2019-01-26T02:43:28.817Z,0.00
2019-01-26T02:44:28.723Z,0.00
2019-01-26T02:45:28.637Z,0.00
2019-01-26T02:46:28.545Z,0.00
2019-01-26T02:47:28.452Z,0.00
2019-01-26T02:48:28.362Z,0.00
2019-01-26T02:49:28.274Z,0.00
2019-01-26T02:50:28.182Z,0.00
2019-01-26T02:51:28.089Z,0.00
2019-01-26T02:52:28.000Z,0.00
2019-01-26T02:53:27.909Z,0.00
2019-01-26T02:54:27.818Z,0.00
2019-01-26T02:55:27.730Z,0.00
2019-01-26T02:56:27.639Z,0.00
2019-01-26T02:57:27.546Z,0.00
2019-01-26T02:58:27.457Z,0.00
2019-01-26T02:59:27.365Z,0.00
2019-01-26T03:00:27.273Z,0.00
2019-01-26T03:01:27.186Z,0.00
2019-01-26T03:02:27.095Z,0.00
2019-01-26T03:03:27.005Z,0.00
2019-01-26T03:04:26.912Z,0.00
2019-01-26T03:05:26.822Z,0.00
2019-01-26T03:06:26.733Z,0.00
2019-01-26T03:07:26.644Z,0.00
2019-01-26T03:08:26.551Z,0.00
2019-01-26T03:09:26.460Z,0.00
2019-01-26T03:10:26.370Z,0.00
2019-01-26T03:11:26.279Z,0.00
2019-01-26T03:12:26.186Z,0.00
2019-01-26T03:13:26.103Z,0.00
2019-01-26T03:14:26.015Z,0.00
2019-01-26T03:15:25.917Z,0.00
2019-01-26T03:16:25.825Z,0.00
2019-01-26T03:17:25.734Z,0.00
2019-01-26T03:18:25.647Z,0.00
2019-01-26T03:19:25.556Z,0.00
2019-01-26T03:20:25.464Z,0.00
2019-01-26T03:21:25.373Z,0.00
2019-01-26T03:22:25.283Z,0.00
2019-01-26T03:23:25.193Z,0.00
2019-01-26T03:24:25.101Z,0.00
2019-01-26T03:25:25.013Z,0.00
2019-01-26T03:26:24.920Z,0.00
2019-01-26T03:27:24.836Z,0.00
2019-01-26T03:28:24.759Z,0.00
2019-01-26T03:29:24.652Z,0.00
2019-01-26T03:30:24.578Z,0.00
2019-01-26T03:31:24.483Z,0.00
2019-01-26T03:32:24.378Z,0.00
2019-01-26T03:33:24.291Z,0.00
2019-01-26T03:34:24.195Z,0.00
2019-01-26T03:35:24.107Z,0.00
2019-01-26T03:36:24.019Z,0.00
2019-01-26T03:37:23.927Z,0.00
2019-01-26T03:38:23.835Z,0.00
2019-01-26T03:39:23.744Z,0.00
2019-01-26T03:40:23.657Z,0.00
2019-01-26T03:41:23.572Z,0.00
2019-01-26T03:42:23.473Z,0.00
2019-01-26T03:43:23.383Z,0.00
2019-01-26T03:44:23.291Z,0.00
2019-01-26T03:45:23.212Z,0.00
2019-01-26T03:46:23.111Z,0.00
2019-01-26T03:47:23.025Z,0.00
2019-01-26T03:48:22.955Z,0.00
2019-01-26T03:49:22.866Z,0.00
2019-01-26T03:50:22.764Z,0.00
2019-01-26T03:51:22.659Z,0.00
2019-01-26T03:52:22.567Z,0.00
2019-01-26T03:53:22.476Z,0.00
2019-01-26T03:54:22.389Z,0.00
2019-01-26T03:55:22.296Z,0.00
2019-01-26T03:56:22.203Z,0.00
2019-01-26T03:57:22.113Z,0.00
2019-01-26T03:58:22.024Z,0.00
2019-01-26T03:59:21.934Z,0.00
2019-01-26T04:00:21.849Z,0.00
2019-01-26T04:01:21.754Z,0.00
2019-01-26T04:02:21.670Z,0.00
2019-01-26T04:03:21.581Z,0.00
2019-01-26T04:04:21.487Z,0.00
2019-01-26T04:05:21.391Z,0.00
2019-01-26T04:06:21.308Z,0.00
2019-01-26T04:07:21.213Z,0.00
2019-01-26T04:08:21.118Z,0.00
2019-01-26T04:09:21.028Z,0.00
2019-01-26T04:10:20.940Z,0.00
2019-01-26T04:11:20.846Z,0.00
2019-01-26T04:12:20.756Z,0.00
2019-01-26T04:13:20.674Z,0.00
2019-01-26T04:14:20.576Z,0.00
2019-01-26T04:15:20.486Z,0.00
2019-01-26T04:16:20.394Z,0.00
2019-01-26T04:17:22.016Z,0.00
2019-01-26T04:18:20.217Z,0.00
2019-01-26T04:19:20.123Z,0.00
2019-01-26T04:20:20.047Z,0.00
2019-01-26T04:21:19.940Z,0.00
2019-01-26T04:22:19.852Z,0.00
2019-01-26T04:23:19.761Z,0.00
2019-01-26T04:24:19.670Z,0.00
2019-01-26T04:25:19.581Z,0.00
2019-01-26T04:26:19.490Z,0.00
2019-01-26T04:27:19.399Z,0.00
2019-01-26T04:28:19.312Z,0.00
2019-01-26T04:29:19.226Z,0.00
2019-01-26T04:30:19.139Z,0.00
2019-01-26T04:31:19.036Z,0.00
2019-01-26T04:32:18.946Z,0.00
2019-01-26T04:33:18.856Z,0.00
2019-01-26T04:34:18.767Z,0.00
2019-01-26T04:35:18.677Z,0.00
2019-01-26T04:36:18.583Z,0.00
2019-01-26T04:37:18.494Z,0.00
2019-01-26T04:38:18.404Z,0.00
2019-01-26T04:39:18.313Z,0.00
2019-01-26T04:40:18.222Z,0.00
2019-01-26T04:41:18.143Z,0.00
2019-01-26T04:42:18.047Z,0.00
2019-01-26T04:43:17.951Z,0.00
2019-01-26T04:44:17.860Z,0.00
2019-01-26T04:45:17.769Z,0.00
2019-01-26T04:46:17.681Z,0.00
2019-01-26T04:47:17.590Z,0.00
2019-01-26T04:48:17.500Z,0.00
2019-01-26T04:49:17.412Z,0.00
2019-01-26T04:50:17.319Z,0.00
2019-01-26T04:51:17.229Z,0.00
2019-01-26T04:52:17.140Z,0.00
2019-01-26T04:53:17.046Z,0.00
2019-01-26T04:54:16.957Z,0.00
2019-01-26T04:55:16.875Z,0.00
2019-01-26T04:56:16.776Z,0.00
2019-01-26T04:57:16.685Z,0.00
2019-01-26T04:58:16.595Z,0.00
2019-01-26T04:59:16.506Z,0.00
2019-01-26T05:00:16.414Z,0.00
2019-01-26T05:01:16.325Z,0.00
2019-01-26T05:02:16.232Z,0.00
2019-01-26T05:03:16.153Z,0.00
2019-01-26T05:04:16.051Z,0.00
2019-01-26T05:05:15.962Z,0.00
2019-01-26T05:06:15.872Z,0.00
2019-01-26T05:07:15.782Z,0.00
2019-01-26T05:08:15.690Z,0.00
2019-01-26T05:09:15.600Z,0.00
2019-01-26T05:10:15.525Z,0.00
2019-01-26T05:11:15.419Z,0.00
2019-01-26T05:12:15.328Z,0.00
2019-01-26T05:13:15.239Z,0.00
2019-01-26T05:14:15.162Z,0.00
2019-01-26T05:15:15.058Z,0.00
2019-01-26T05:16:14.971Z,0.00
2019-01-26T05:17:14.879Z,0.00
2019-01-26T05:18:14.787Z,0.00
2019-01-26T05:19:14.699Z,0.00
2019-01-26T05:20:14.608Z,0.00
2019-01-26T05:21:14.515Z,0.00
2019-01-26T05:22:14.425Z,0.00
2019-01-26T05:23:14.338Z,0.00
2019-01-26T05:24:14.244Z,0.00
2019-01-26T05:25:14.153Z,0.00
2019-01-26T05:26:14.063Z,0.00
2019-01-26T05:27:13.974Z,0.00
2019-01-26T05:28:13.883Z,0.00
2019-01-26T05:29:13.793Z,0.00
2019-01-26T05:30:13.704Z,0.00
2019-01-26T05:31:13.613Z,0.00
2019-01-26T05:32:13.520Z,0.00
2019-01-26T05:33:13.444Z,0.00
2019-01-26T05:34:13.361Z,0.00
2019-01-26T05:35:13.252Z,0.00
2019-01-26T05:36:13.160Z,0.00
2019-01-26T05:37:13.068Z,0.00
2019-01-26T05:38:12.993Z,0.00
2019-01-26T05:39:12.901Z,0.00
2019-01-26T05:40:12.800Z,0.00
2019-01-26T05:41:12.710Z,0.00
2019-01-26T05:42:12.616Z,0.00
2019-01-26T05:43:12.526Z,0.00
2019-01-26T05:44:12.435Z,0.00
2019-01-26T05:45:12.345Z,0.00
2019-01-26T05:46:12.255Z,0.00
2019-01-26T05:47:12.165Z,0.00
2019-01-26T05:48:12.073Z,0.00
2019-01-26T05:49:11.983Z,0.00
2019-01-26T05:50:11.893Z,0.00
2019-01-26T05:51:11.804Z,0.00
2019-01-26T05:52:11.712Z,0.00
2019-01-26T05:53:11.622Z,0.00
2019-01-26T05:54:11.532Z,0.00
2019-01-26T05:55:11.441Z,0.00
2019-01-26T05:56:11.356Z,0.00
2019-01-26T05:57:11.262Z,0.00
2019-01-26T05:58:11.169Z,0.00
2019-01-26T05:59:11.081Z,0.00
2019-01-26T06:00:10.990Z,0.00
2019-01-26T06:01:10.899Z,0.00
2019-01-26T06:02:10.810Z,0.00
2019-01-26T06:03:10.719Z,0.00
2019-01-26T06:04:10.628Z,0.00
2019-01-26T06:05:10.537Z,0.00
2019-01-26T06:06:10.450Z,0.00
2019-01-26T06:07:10.360Z,0.00
2019-01-26T06:08:10.266Z,0.00
2019-01-26T06:09:10.178Z,0.00
2019-01-26T06:10:10.087Z,0.00
2019-01-26T06:11:09.999Z,0.00
2019-01-26T06:12:09.906Z,0.00
2019-01-26T06:13:09.818Z,0.00
2019-01-26T06:14:09.729Z,0.00
2019-01-26T06:15:09.636Z,0.00
2019-01-26T06:16:09.545Z,0.00
2019-01-26T06:17:09.454Z,0.00
2019-01-26T06:18:09.365Z,0.00
2019-01-26T06:19:09.283Z,0.00
2019-01-26T06:20:09.195Z,0.00
2019-01-26T06:21:09.093Z,0.00
2019-01-26T06:22:09.006Z,0.00
2019-01-26T06:23:08.912Z,0.00
2019-01-26T06:24:08.822Z,0.00
2019-01-26T06:25:08.733Z,0.00
2019-01-26T06:26:08.653Z,0.00
2019-01-26T06:27:08.551Z,0.00
2019-01-26T06:28:08.464Z,0.00
2019-01-26T06:29:08.370Z,0.00
2019-01-26T06:30:08.283Z,4.00
2019-01-26T06:31:08.193Z,4.00
2019-01-26T06:32:08.099Z,4.00
2019-01-26T06:33:08.015Z,0.00
2019-01-26T06:34:07.921Z,4.00
2019-01-26T06:35:07.830Z,4.00
2019-01-26T06:36:07.745Z,8.00
2019-01-26T06:37:07.649Z,4.00
2019-01-26T06:38:07.559Z,8.00
2019-01-26T06:39:07.476Z,8.00
2019-01-26T06:40:07.384Z,8.00
2019-01-26T06:41:07.289Z,12.00
2019-01-26T06:42:07.198Z,12.00
2019-01-26T06:43:07.110Z,16.00
2019-01-26T06:44:07.019Z,16.00
2019-01-26T06:45:06.932Z,20.00
2019-01-26T06:46:06.837Z,24.00
2019-01-26T06:47:06.748Z,24.00
2019-01-26T06:48:06.658Z,28.00
2019-01-26T06:49:06.567Z,28.00
2019-01-26T06:50:06.478Z,28.00
2019-01-26T06:51:06.390Z,28.00
2019-01-26T06:52:06.298Z,36.00
2019-01-26T06:53:06.208Z,36.00
2019-01-26T06:54:06.157Z,40.00
2019-01-26T06:55:06.029Z,48.00
2019-01-26T06:56:05.940Z,52.00
2019-01-26T06:57:05.849Z,52.00
2019-01-26T06:58:05.759Z,60.00
2019-01-26T06:59:05.673Z,64.00
2019-01-26T07:00:05.579Z,68.00
2019-01-26T07:01:05.491Z,68.00
2019-01-26T07:02:05.399Z,72.00
2019-01-26T07:03:05.315Z,76.00
2019-01-26T07:04:05.219Z,84.00
2019-01-26T07:05:05.131Z,96.00
2019-01-26T07:06:05.039Z,108.00
2019-01-26T07:07:04.950Z,120.00
2019-01-26T07:08:04.862Z,136.00
2019-01-26T07:09:04.769Z,148.00
2019-01-26T07:10:04.679Z,164.00
2019-01-26T07:11:04.589Z,172.00
2019-01-26T07:12:04.499Z,180.00
2019-01-26T07:13:04.410Z,168.00
2019-01-26T07:14:04.321Z,172.00
2019-01-26T07:15:04.232Z,180.00
2019-01-26T07:16:04.143Z,184.00
2019-01-26T07:17:04.049Z,192.00
2019-01-26T07:18:09.388Z,208.00
2019-01-26T07:19:03.872Z,216.00
2019-01-26T07:20:03.781Z,224.00
2019-01-26T07:21:03.714Z,240.00
2019-01-26T07:22:03.601Z,256.00
2019-01-26T07:23:03.511Z,284.00
2019-01-26T07:24:03.421Z,304.00
2019-01-26T07:25:03.333Z,292.00
2019-01-26T07:26:03.242Z,296.00
2019-01-26T07:27:03.158Z,300.00
2019-01-26T07:28:03.062Z,300.00
2019-01-26T07:29:02.971Z,312.00
2019-01-26T07:30:02.882Z,320.00
2019-01-26T07:31:02.794Z,324.00
2019-01-26T07:32:02.703Z,316.00
2019-01-26T07:33:02.617Z,324.00
2019-01-26T07:34:02.525Z,364.00
2019-01-26T07:35:02.434Z,376.00
2019-01-26T07:36:02.342Z,376.00
2019-01-26T07:37:02.256Z,388.00
2019-01-26T07:38:02.166Z,396.00
2019-01-26T07:39:02.073Z,408.00
2019-01-26T07:40:01.985Z,388.00
2019-01-26T07:41:01.894Z,388.00
2019-01-26T07:42:01.804Z,384.00
2019-01-26T07:43:01.715Z,408.00
2019-01-26T07:44:01.624Z,436.00
2019-01-26T07:45:01.536Z,468.00
2019-01-26T07:46:01.444Z,492.00
2019-01-26T07:47:01.355Z,564.00
2019-01-26T07:48:01.265Z,588.00
2019-01-26T07:49:01.175Z,616.00
2019-01-26T07:50:01.087Z,640.00
2019-01-26T07:51:00.996Z,632.00
2019-01-26T07:52:00.940Z,612.00
2019-01-26T07:53:00.818Z,596.00
2019-01-26T07:54:00.726Z,616.00
2019-01-26T07:55:00.639Z,640.00
2019-01-26T07:56:00.546Z,616.00
2019-01-26T07:57:00.457Z,652.00
2019-01-26T07:58:00.368Z,612.00
2019-01-26T07:59:00.277Z,612.00
2019-01-26T08:00:00.194Z,640.00
2019-01-26T08:01:00.097Z,684.00
2019-01-26T08:02:00.011Z,708.00
2019-01-26T08:02:59.922Z,756.00
2019-01-26T08:03:59.828Z,756.00
2019-01-26T08:04:59.737Z,828.00
2019-01-26T08:05:59.647Z,900.00
2019-01-26T08:06:59.559Z,888.00
2019-01-26T08:07:59.468Z,904.00
2019-01-26T08:08:59.379Z,932.00
2019-01-26T08:09:59.289Z,956.00
2019-01-26T08:10:59.203Z,884.00
2019-01-26T08:11:59.110Z,920.00
2019-01-26T08:12:59.019Z,1012.00
2019-01-26T08:13:58.933Z,976.00
2019-01-26T08:14:58.843Z,984.00
2019-01-26T08:15:58.755Z,1012.00
2019-01-26T08:16:58.661Z,1040.00
2019-01-26T08:17:58.572Z,956.00
2019-01-26T08:18:58.482Z,968.00
2019-01-26T08:19:58.392Z,968.00
2019-01-26T08:20:58.305Z,984.00
2019-01-26T08:21:58.215Z,956.00
2019-01-26T08:22:58.125Z,960.00
2019-01-26T08:23:58.033Z,976.00
2019-01-26T08:24:57.944Z,1064.00
2019-01-26T08:25:57.855Z,1124.00
2019-01-26T08:26:57.765Z,1220.00
2019-01-26T08:27:57.675Z,1152.00
2019-01-26T08:28:57.585Z,1104.00
2019-01-26T08:29:57.497Z,1096.00
2019-01-26T08:30:57.432Z,1092.00
2019-01-26T08:31:57.337Z,1088.00
2019-01-26T08:32:57.242Z,1140.00
2019-01-26T08:33:57.139Z,1224.00
2019-01-26T08:34:57.048Z,1272.00
2019-01-26T08:35:56.965Z,1308.00
2019-01-26T08:36:56.871Z,1232.00
2019-01-26T08:37:56.780Z,1228.00
2019-01-26T08:38:56.691Z,1200.00
2019-01-26T08:39:56.600Z,1212.00
2019-01-26T08:40:56.519Z,1308.00
2019-01-26T08:41:56.419Z,1272.00
2019-01-26T08:42:56.331Z,1308.00
2019-01-26T08:43:56.241Z,1284.00
2019-01-26T08:44:56.160Z,1292.00
2019-01-26T08:45:56.069Z,1320.00
2019-01-26T08:46:56.050Z,1472.00
2019-01-26T08:47:55.884Z,1548.00
2019-01-26T08:48:55.794Z,1608.00
2019-01-26T08:49:55.706Z,1580.00
2019-01-26T08:50:55.618Z,1596.00
2019-01-26T08:51:55.527Z,1668.00
2019-01-26T08:52:55.439Z,1608.00
2019-01-26T08:53:55.348Z,1604.00
2019-01-26T08:54:55.260Z,1664.00
2019-01-26T08:55:55.177Z,1608.00
2019-01-26T08:56:55.079Z,1592.00
2019-01-26T08:57:54.991Z,1432.00
2019-01-26T08:58:54.903Z,1448.00
2019-01-26T08:59:54.813Z,1468.00
2019-01-26T09:00:54.723Z,1528.00
2019-01-26T09:01:54.634Z,1640.00
2019-01-26T09:02:54.546Z,1852.00
2019-01-26T09:03:54.455Z,1848.00
2019-01-26T09:04:54.368Z,1988.00
2019-01-26T09:05:54.289Z,2012.00
2019-01-26T09:06:54.190Z,2076.00
2019-01-26T09:07:54.099Z,2000.00
2019-01-26T09:08:54.010Z,1912.00
2019-01-26T09:09:53.922Z,1868.00
2019-01-26T09:10:53.833Z,1796.00
2019-01-26T09:11:53.742Z,1828.00
2019-01-26T09:12:53.657Z,1740.00
2019-01-26T09:13:53.564Z,1676.00
2019-01-26T09:14:53.477Z,1556.00
2019-01-26T09:15:53.386Z,1632.00
2019-01-26T09:16:53.298Z,1680.00
2019-01-26T09:17:53.208Z,1632.00
2019-01-26T09:18:53.120Z,1620.00
2019-01-26T09:19:53.066Z,1672.00
2019-01-26T09:20:52.941Z,1648.00
2019-01-26T09:21:52.852Z,1684.00
2019-01-26T09:22:52.765Z,1684.00
2019-01-26T09:23:52.677Z,1684.00
2019-01-26T09:24:52.587Z,1676.00
2019-01-26T09:25:52.508Z,1564.00
2019-01-26T09:26:52.408Z,1692.00
2019-01-26T09:27:52.319Z,1776.00
2019-01-26T09:28:52.229Z,1744.00
2019-01-26T09:29:52.141Z,1680.00
2019-01-26T09:30:52.054Z,1852.00
2019-01-26T09:31:51.995Z,2016.00
2019-01-26T09:32:51.877Z,2024.00
2019-01-26T09:33:51.789Z,1980.00
2019-01-26T09:34:51.699Z,2020.00
2019-01-26T09:35:51.619Z,1848.00
2019-01-26T09:36:51.519Z,1856.00
2019-01-26T09:37:51.431Z,1752.00
2019-01-26T09:38:51.344Z,1628.00
2019-01-26T09:39:51.253Z,1564.00
2019-01-26T09:40:51.165Z,1528.00
2019-01-26T09:41:51.077Z,1512.00
2019-01-26T09:42:50.988Z,1460.00
2019-01-26T09:43:50.901Z,1468.00
2019-01-26T09:44:50.811Z,1500.00
2019-01-26T09:45:50.722Z,1512.00
2019-01-26T09:46:50.634Z,1628.00
2019-01-26T09:47:50.544Z,1628.00
2019-01-26T09:48:50.460Z,1608.00
2019-01-26T09:49:50.429Z,1652.00
2019-01-26T09:50:50.281Z,1672.00
2019-01-26T09:51:50.193Z,1656.00
2019-01-26T09:52:50.103Z,1656.00
2019-01-26T09:53:50.014Z,1672.00
2019-01-26T09:54:49.929Z,1520.00
2019-01-26T09:55:49.838Z,1500.00
2019-01-26T09:56:49.749Z,1532.00
2019-01-26T09:57:49.698Z,1504.00
2019-01-26T09:58:49.572Z,1484.00
2019-01-26T09:59:49.489Z,1468.00
2019-01-26T10:00:49.403Z,1380.00
2019-01-26T10:01:49.307Z,1396.00
2019-01-26T10:02:49.219Z,1444.00
2019-01-26T10:03:49.486Z,1492.00
2019-01-26T10:04:49.041Z,1460.00
2019-01-26T10:05:48.987Z,1428.00
2019-01-26T10:06:48.928Z,1396.00
2019-01-26T10:07:48.825Z,1400.00
2019-01-26T10:08:48.815Z,1380.00
2019-01-26T10:09:48.621Z,1424.00
2019-01-26T10:10:48.513Z,1416.00
2019-01-26T10:11:48.423Z,1368.00
2019-01-26T10:12:48.335Z,1384.00
2019-01-26T10:13:48.249Z,1492.00
2019-01-26T10:14:48.163Z,1548.00
2019-01-26T10:15:48.073Z,1516.00
2019-01-26T10:16:47.983Z,1672.00
2019-01-26T10:17:47.896Z,1716.00
2019-01-26T10:18:53.473Z,1744.00
2019-01-26T10:19:47.718Z,1760.00
2019-01-26T10:20:47.630Z,1704.00
2019-01-26T10:21:47.604Z,1652.00
2019-01-26T10:22:47.453Z,1680.00
2019-01-26T10:23:47.367Z,1668.00
2019-01-26T10:24:47.278Z,1648.00
2019-01-26T10:25:48.833Z,1580.00
2019-01-26T10:26:47.105Z,1552.00
2019-01-26T10:27:47.013Z,1600.00
2019-01-26T10:28:54.132Z,1720.00
2019-01-26T10:30:51.255Z,1836.00
2019-01-26T10:31:51.119Z,1792.00
2019-01-26T10:33:55.390Z,1776.00
2019-01-26T10:34:55.298Z,1848.00
2019-01-26T10:36:59.141Z,1832.00
2019-01-26T10:37:59.003Z,1884.00
2019-01-26T10:39:51.792Z,1996.00
2019-01-26T10:40:51.652Z,2112.00
2019-01-26T10:42:55.439Z,2076.00
2019-01-26T10:43:55.348Z,2200.00
2019-01-26T10:45:59.190Z,2492.00
2019-01-26T10:46:59.048Z,2724.00
2019-01-26T10:49:02.834Z,2336.00
2019-01-26T10:50:02.743Z,2256.00
2019-01-26T10:52:06.583Z,2292.00
2019-01-26T10:53:06.445Z,2204.00
2019-01-26T10:54:06.579Z,2336.00
2019-01-26T10:55:06.269Z,2240.00
2019-01-26T10:56:06.185Z,2304.00
2019-01-26T10:57:06.096Z,2344.00
2019-01-26T10:58:06.016Z,2288.00
2019-01-26T10:59:05.917Z,2164.00
2019-01-26T11:00:05.839Z,2252.00
2019-01-26T11:01:05.746Z,2392.00
2019-01-26T11:02:06.806Z,2248.00
2019-01-26T11:03:05.567Z,2468.00
2019-01-26T11:04:05.479Z,2432.00
2019-01-26T11:05:05.391Z,2440.00
2019-01-26T11:06:05.315Z,2444.00
2019-01-26T11:07:05.215Z,2812.00
2019-01-26T11:08:05.130Z,2772.00
2019-01-26T11:09:05.038Z,2956.00
2019-01-26T11:10:04.951Z,3208.00
2019-01-26T11:11:04.863Z,3208.00
2019-01-26T11:12:04.775Z,3380.00
2019-01-26T11:13:04.688Z,3484.00
2019-01-26T11:14:04.601Z,3280.00
2019-01-26T11:15:04.515Z,3008.00
2019-01-26T11:16:04.422Z,2776.00
2019-01-26T11:17:04.347Z,2680.00
2019-01-26T11:18:04.250Z,2796.00
2019-01-26T11:19:08.035Z,2964.00
2019-01-26T11:20:04.078Z,2580.00
2019-01-26T11:21:03.986Z,2264.00
2019-01-26T11:22:03.901Z,2232.00
2019-01-26T11:23:03.811Z,2216.00
2019-01-26T11:24:03.729Z,2176.00
2019-01-26T11:25:03.636Z,1988.00
2019-01-26T11:26:03.553Z,2040.00
2019-01-26T11:27:03.466Z,1840.00
2019-01-26T11:28:03.372Z,1956.00
2019-01-26T11:29:03.286Z,1924.00
2019-01-26T11:30:03.204Z,1808.00
2019-01-26T11:31:03.117Z,1572.00
2019-01-26T11:32:03.024Z,1528.00
2019-01-26T11:33:02.942Z,1612.00
2019-01-26T11:34:02.851Z,1584.00
2019-01-26T11:35:02.770Z,1700.00
2019-01-26T11:36:02.672Z,1720.00
2019-01-26T11:37:02.587Z,1580.00
2019-01-26T11:38:02.497Z,1548.00
2019-01-26T11:39:02.426Z,1640.00
2019-01-26T11:40:02.325Z,1692.00
2019-01-26T11:41:02.235Z,1780.00
2019-01-26T11:42:02.147Z,1564.00
2019-01-26T11:43:02.058Z,1612.00
2019-01-26T11:44:01.974Z,1600.00
2019-01-26T11:45:01.884Z,1500.00
2019-01-26T11:46:01.795Z,1684.00
2019-01-26T11:47:01.711Z,1776.00
2019-01-26T11:48:01.621Z,1716.00
2019-01-26T11:49:01.543Z,1844.00
2019-01-26T11:50:01.454Z,1780.00
2019-01-26T11:51:01.356Z,1904.00
2019-01-26T11:52:01.272Z,1784.00
2019-01-26T11:53:01.183Z,2012.00
2019-01-26T11:54:01.093Z,1984.00
2019-01-26T11:55:01.006Z,1844.00
2019-01-26T11:56:00.921Z,1944.00
2019-01-26T11:57:00.831Z,1892.00
2019-01-26T11:58:00.744Z,1848.00
2019-01-26T11:59:00.656Z,1904.00
2019-01-26T12:00:00.570Z,2052.00
2019-01-26T12:01:00.481Z,1920.00
2019-01-26T12:02:00.429Z,1804.00
2019-01-26T12:03:00.305Z,1992.00
2019-01-26T12:04:00.223Z,1816.00
2019-01-26T12:05:00.258Z,1876.00
2019-01-26T12:06:00.049Z,1852.00
2019-01-26T12:06:59.958Z,1804.00
2019-01-26T12:07:59.869Z,1936.00
2019-01-26T12:08:59.782Z,2036.00
2019-01-26T12:09:59.698Z,1876.00
2019-01-26T12:10:59.607Z,1764.00
2019-01-26T12:11:59.518Z,1632.00
2019-01-26T12:12:59.431Z,1568.00
2019-01-26T12:13:59.343Z,1556.00
2019-01-26T12:14:59.259Z,1740.00
2019-01-26T12:15:59.169Z,1716.00
2019-01-26T12:16:59.084Z,1644.00
2019-01-26T12:17:58.994Z,1836.00
2019-01-26T12:18:58.908Z,1676.00
2019-01-26T12:19:58.818Z,1532.00
2019-01-26T12:20:58.729Z,1540.00
2019-01-26T12:21:58.643Z,1448.00
2019-01-26T12:22:58.557Z,1616.00
2019-01-26T12:23:58.472Z,1384.00
2019-01-26T12:24:58.382Z,1348.00
2019-01-26T12:25:58.295Z,1368.00
2019-01-26T12:26:58.206Z,1432.00
2019-01-26T12:27:58.118Z,1400.00
2019-01-26T12:28:58.070Z,1244.00
2019-01-26T12:29:57.944Z,1540.00
2019-01-26T12:30:57.856Z,1540.00
2019-01-26T12:31:57.769Z,1472.00
2019-01-26T12:32:57.683Z,1488.00
2019-01-26T12:33:57.670Z,1340.00
2019-01-26T12:34:57.562Z,1272.00
2019-01-26T12:35:57.418Z,1556.00
2019-01-26T12:36:57.335Z,1564.00
2019-01-26T12:37:57.283Z,1652.00
2019-01-26T12:38:57.161Z,1912.00
2019-01-26T12:39:57.206Z,1788.00
2019-01-26T12:40:56.981Z,1736.00
2019-01-26T12:41:56.895Z,1808.00
2019-01-26T12:42:56.843Z,1904.00
2019-01-26T12:43:56.721Z,1788.00
2019-01-26T12:44:56.636Z,1560.00
2019-01-26T12:45:56.581Z,1672.00
2019-01-26T12:46:56.458Z,1728.00
2019-01-26T12:47:56.370Z,1728.00
2019-01-26T12:48:56.284Z,1744.00
2019-01-26T12:49:56.195Z,1544.00
2019-01-26T12:50:56.111Z,1552.00
2019-01-26T12:51:56.023Z,1520.00
2019-01-26T12:52:55.932Z,1444.00
2019-01-26T12:53:55.871Z,1672.00